Terminal Aerodrome Forecast
Issued by NWS

Home | Current Version | Previous Version | Text Only | Print | Product List | Glossary On
Versions: 1 2 3 4 5 6 7 8 9 10 11 12 13 14
000
FTUS45 KTFX 041727
TAFHLN
TAF
KHLN 041727Z 0418/0518 02006KT P6SM SKC
     FM042100 08007KT P6SM SCT080 SCT120
     FM050200 21006KT P6SM BKN150=

USA.gov is the U.S. government's official web portal to all federal, state and local government web resources and services.